logo
Search for airport 
image banner adimage banner adimage banner ad
image banner ad

RCNN - Tainan

Located in Tainan, Taiwan, Province of China

ICAO - RCNN, IATA - TNN

Data provided by Airmate  

General information

Coordinates: N22°56'57" E120°12'40"
Elevation is 64 feet MSL.
 
View others Airports in Tainan City

Operational data

Special qualification required
Current time UTC:
Current local time:
Weather
METAR: RCNN 241800Z 08001KT 6000 FEW010 BKN060 23/22 Q1009 RMK A2981
TAF: TAF RCNN 241700Z 2418/2518 16004KT 6000 FEW010 BKN080 TX30/2505Z TN24/2421Z BECMG 2501/2504 24010KT 8000 -RA FEW010 BKN050 TEMPO 2505/2510 5000 -RA BR FEW010 BKN020 BKN040 BECMG 2511/2514 18004KT 5000 -RA BR FEW010 BKN020 BKN040
View NOTAMs / SUP AIP / TFR affecting this airport [VIEW]
Communications frequencies: [VIEW]

Runways:

RWY identifierQFULength (ft)Width (ft)SurfaceLDA (ft)
18L179°10007148CON
36R359°10007148CON
18R179°10007148CON
36L359°10007148CON

Airport contact information

Address: Tainan Taiwan, Province of China

Satellite view of RCNN